sensor_id;sensor_type;location;lat;lon;timestamp;P1;durP1;ratioP1;P2;durP2;ratioP2
61038;SDS011;46919;45.816;3.104;2023-07-22T00:01:47;4.78;;;2.58;;
61038;SDS011;46919;45.816;3.104;2023-07-22T00:04:13;3.95;;;2.38;;
61038;SDS011;46919;45.816;3.104;2023-07-22T00:06:38;4.20;;;2.60;;
61038;SDS011;46919;45.816;3.104;2023-07-22T00:09:03;3.53;;;2.83;;
61038;SDS011;46919;45.816;3.104;2023-07-22T00:11:29;3.97;;;2.67;;
61038;SDS011;46919;45.816;3.104;2023-07-22T00:13:54;3.17;;;2.75;;
61038;SDS011;46919;45.816;3.104;2023-07-22T00:16:20;3.38;;;2.80;;
61038;SDS011;46919;45.816;3.104;2023-07-22T00:18:46;4.68;;;2.65;;
61038;SDS011;46919;45.816;3.104;2023-07-22T00:21:12;5.60;;;3.00;;
61038;SDS011;46919;45.816;3.104;2023-07-22T00:23:38;4.15;;;3.00;;
61038;SDS011;46919;45.816;3.104;2023-07-22T00:26:03;4.53;;;2.97;;
61038;SDS011;46919;45.816;3.104;2023-07-22T00:28:29;5.10;;;2.88;;
61038;SDS011;46919;45.816;3.104;2023-07-22T00:30:55;3.78;;;2.83;;
61038;SDS011;46919;45.816;3.104;2023-07-22T00:33:22;4.57;;;2.63;;
61038;SDS011;46919;45.816;3.104;2023-07-22T00:35:48;4.80;;;2.75;;
61038;SDS011;46919;45.816;3.104;2023-07-22T00:38:18;4.45;;;2.60;;
61038;SDS011;46919;45.816;3.104;2023-07-22T00:40:44;3.67;;;2.75;;
61038;SDS011;46919;45.816;3.104;2023-07-22T00:43:10;5.28;;;3.13;;
61038;SDS011;46919;45.816;3.104;2023-07-22T00:45:36;4.38;;;3.13;;
61038;SDS011;46919;45.816;3.104;2023-07-22T00:48:02;3.72;;;3.20;;
61038;SDS011;46919;45.816;3.104;2023-07-22T00:50:30;5.97;;;3.22;;
61038;SDS011;46919;45.816;3.104;2023-07-22T00:52:56;4.10;;;3.00;;
61038;SDS011;46919;45.816;3.104;2023-07-22T00:55:22;5.55;;;3.28;;
61038;SDS011;46919;45.816;3.104;2023-07-22T00:57:48;6.18;;;3.50;;
61038;SDS011;46919;45.816;3.104;2023-07-22T01:00:13;4.72;;;3.67;;
61038;SDS011;46919;45.816;3.104;2023-07-22T01:02:41;4.00;;;3.40;;
61038;SDS011;46919;45.816;3.104;2023-07-22T01:05:08;3.95;;;3.53;;
61038;SDS011;46919;45.816;3.104;2023-07-22T01:07:35;5.18;;;3.50;;
61038;SDS011;46919;45.816;3.104;2023-07-22T01:10:03;3.75;;;3.10;;
61038;SDS011;46919;45.816;3.104;2023-07-22T01:12:31;4.22;;;3.13;;
61038;SDS011;46919;45.816;3.104;2023-07-22T01:14:56;5.32;;;2.97;;
61038;SDS011;46919;45.816;3.104;2023-07-22T01:17:23;8.30;;;3.28;;
61038;SDS011;46919;45.816;3.104;2023-07-22T01:19:49;3.47;;;3.10;;
61038;SDS011;46919;45.816;3.104;2023-07-22T01:22:14;5.13;;;2.97;;
61038;SDS011;46919;45.816;3.104;2023-07-22T01:24:41;4.72;;;2.85;;
61038;SDS011;46919;45.816;3.104;2023-07-22T01:27:07;4.47;;;3.08;;
61038;SDS011;46919;45.816;3.104;2023-07-22T01:29:35;4.22;;;3.20;;
61038;SDS011;46919;45.816;3.104;2023-07-22T01:32:01;6.15;;;2.95;;
61038;SDS011;46919;45.816;3.104;2023-07-22T01:34:26;5.30;;;3.17;;
61038;SDS011;46919;45.816;3.104;2023-07-22T01:36:52;6.03;;;2.92;;
61038;SDS011;46919;45.816;3.104;2023-07-22T01:39:19;5.35;;;3.03;;
61038;SDS011;46919;45.816;3.104;2023-07-22T01:41:44;7.85;;;3.25;;
61038;SDS011;46919;45.816;3.104;2023-07-22T01:44:10;3.67;;;2.67;;
61038;SDS011;46919;45.816;3.104;2023-07-22T01:46:36;5.90;;;3.13;;
61038;SDS011;46919;45.816;3.104;2023-07-22T01:49:03;3.70;;;2.75;;
61038;SDS011;46919;45.816;3.104;2023-07-22T01:51:31;4.68;;;3.40;;
61038;SDS011;46919;45.816;3.104;2023-07-22T01:53:57;5.40;;;3.00;;
61038;SDS011;46919;45.816;3.104;2023-07-22T01:56:23;6.32;;;2.90;;
61038;SDS011;46919;45.816;3.104;2023-07-22T01:58:48;3.85;;;2.70;;
61038;SDS011;46919;45.816;3.104;2023-07-22T02:01:14;4.80;;;2.80;;
61038;SDS011;46919;45.816;3.104;2023-07-22T02:03:41;3.65;;;2.78;;
61038;SDS011;46919;45.816;3.104;2023-07-22T02:06:10;4.72;;;3.08;;
61038;SDS011;46919;45.816;3.104;2023-07-22T02:08:35;4.22;;;3.00;;
61038;SDS011;46919;45.816;3.104;2023-07-22T02:11:06;5.28;;;3.30;;
61038;SDS011;46919;45.816;3.104;2023-07-22T02:13:34;3.85;;;3.20;;
61038;SDS011;46919;45.816;3.104;2023-07-22T02:16:00;5.00;;;2.92;;
61038;SDS011;46919;45.816;3.104;2023-07-22T02:18:26;3.47;;;2.60;;
61038;SDS011;46919;45.816;3.104;2023-07-22T02:20:52;3.78;;;3.13;;
61038;SDS011;46919;45.816;3.104;2023-07-22T02:23:18;4.45;;;3.03;;
61038;SDS011;46919;45.816;3.104;2023-07-22T02:25:44;4.32;;;3.05;;
61038;SDS011;46919;45.816;3.104;2023-07-22T02:28:09;5.65;;;3.08;;
61038;SDS011;46919;45.816;3.104;2023-07-22T02:30:35;4.80;;;3.13;;
61038;SDS011;46919;45.816;3.104;2023-07-22T02:33:02;6.20;;;3.42;;
61038;SDS011;46919;45.816;3.104;2023-07-22T02:35:29;4.53;;;3.05;;
61038;SDS011;46919;45.816;3.104;2023-07-22T02:37:54;4.43;;;3.10;;
61038;SDS011;46919;45.816;3.104;2023-07-22T02:40:19;4.57;;;3.17;;
61038;SDS011;46919;45.816;3.104;2023-07-22T02:42:45;4.47;;;3.00;;
61038;SDS011;46919;45.816;3.104;2023-07-22T02:45:11;3.72;;;3.17;;
61038;SDS011;46919;45.816;3.104;2023-07-22T02:47:37;3.53;;;3.05;;
61038;SDS011;46919;45.816;3.104;2023-07-22T02:50:03;5.25;;;3.17;;
61038;SDS011;46919;45.816;3.104;2023-07-22T02:52:30;5.65;;;3.33;;
61038;SDS011;46919;45.816;3.104;2023-07-22T02:55:08;4.07;;;2.85;;
61038;SDS011;46919;45.816;3.104;2023-07-22T02:57:36;3.90;;;3.05;;
61038;SDS011;46919;45.816;3.104;2023-07-22T03:00:02;3.45;;;3.00;;
61038;SDS011;46919;45.816;3.104;2023-07-22T03:02:33;6.05;;;2.95;;
61038;SDS011;46919;45.816;3.104;2023-07-22T03:05:01;3.78;;;2.83;;
61038;SDS011;46919;45.816;3.104;2023-07-22T03:07:28;5.55;;;3.25;;
61038;SDS011;46919;45.816;3.104;2023-07-22T03:09:53;3.58;;;3.25;;
61038;SDS011;46919;45.816;3.104;2023-07-22T03:12:19;5.40;;;3.40;;
61038;SDS011;46919;45.816;3.104;2023-07-22T03:14:44;8.90;;;3.33;;
61038;SDS011;46919;45.816;3.104;2023-07-22T03:17:10;4.50;;;3.25;;
61038;SDS011;46919;45.816;3.104;2023-07-22T03:19:37;6.82;;;2.90;;
61038;SDS011;46919;45.816;3.104;2023-07-22T03:22:02;5.38;;;3.28;;
61038;SDS011;46919;45.816;3.104;2023-07-22T03:24:28;5.43;;;3.50;;
61038;SDS011;46919;45.816;3.104;2023-07-22T03:26:54;4.68;;;3.33;;
61038;SDS011;46919;45.816;3.104;2023-07-22T03:29:19;4.72;;;3.60;;
61038;SDS011;46919;45.816;3.104;2023-07-22T03:31:45;3.75;;;3.13;;
61038;SDS011;46919;45.816;3.104;2023-07-22T03:34:10;8.15;;;2.90;;
61038;SDS011;46919;45.816;3.104;2023-07-22T03:36:36;3.88;;;3.50;;
61038;SDS011;46919;45.816;3.104;2023-07-22T03:39:01;3.40;;;2.75;;
61038;SDS011;46919;45.816;3.104;2023-07-22T03:41:28;6.05;;;3.15;;
61038;SDS011;46919;45.816;3.104;2023-07-22T03:43:53;3.50;;;3.03;;
61038;SDS011;46919;45.816;3.104;2023-07-22T03:46:18;4.60;;;3.53;;
61038;SDS011;46919;45.816;3.104;2023-07-22T03:48:44;3.88;;;3.15;;
61038;SDS011;46919;45.816;3.104;2023-07-22T03:51:09;4.32;;;3.50;;
61038;SDS011;46919;45.816;3.104;2023-07-22T03:53:35;3.40;;;3.08;;
61038;SDS011;46919;45.816;3.104;2023-07-22T03:56:00;6.75;;;3.40;;
61038;SDS011;46919;45.816;3.104;2023-07-22T03:58:25;3.35;;;2.90;;
61038;SDS011;46919;45.816;3.104;2023-07-22T04:00:51;5.22;;;3.28;;
61038;SDS011;46919;45.816;3.104;2023-07-22T04:03:16;6.80;;;3.20;;
61038;SDS011;46919;45.816;3.104;2023-07-22T04:05:42;4.05;;;3.30;;
61038;SDS011;46919;45.816;3.104;2023-07-22T04:08:07;3.75;;;3.20;;
61038;SDS011;46919;45.816;3.104;2023-07-22T04:10:32;4.00;;;3.10;;
61038;SDS011;46919;45.816;3.104;2023-07-22T04:12:58;7.22;;;3.15;;
61038;SDS011;46919;45.816;3.104;2023-07-22T04:15:23;3.22;;;2.75;;
61038;SDS011;46919;45.816;3.104;2023-07-22T04:17:48;4.05;;;2.90;;
61038;SDS011;46919;45.816;3.104;2023-07-22T04:20:14;4.18;;;2.90;;
61038;SDS011;46919;45.816;3.104;2023-07-22T04:22:39;5.95;;;2.78;;
61038;SDS011;46919;45.816;3.104;2023-07-22T04:25:06;7.30;;;3.13;;
61038;SDS011;46919;45.816;3.104;2023-07-22T04:27:32;4.80;;;2.90;;
61038;SDS011;46919;45.816;3.104;2023-07-22T04:29:58;4.57;;;3.00;;
61038;SDS011;46919;45.816;3.104;2023-07-22T04:32:23;5.03;;;3.00;;
61038;SDS011;46919;45.816;3.104;2023-07-22T04:34:48;5.00;;;2.60;;
61038;SDS011;46919;45.816;3.104;2023-07-22T04:37:14;3.90;;;2.92;;
61038;SDS011;46919;45.816;3.104;2023-07-22T04:39:41;4.18;;;2.95;;
61038;SDS011;46919;45.816;3.104;2023-07-22T04:42:07;4.90;;;3.15;;
61038;SDS011;46919;45.816;3.104;2023-07-22T04:44:33;5.50;;;2.97;;
61038;SDS011;46919;45.816;3.104;2023-07-22T04:46:58;3.80;;;2.95;;
61038;SDS011;46919;45.816;3.104;2023-07-22T04:49:23;4.50;;;3.38;;
61038;SDS011;46919;45.816;3.104;2023-07-22T04:51:49;4.97;;;2.97;;
61038;SDS011;46919;45.816;3.104;2023-07-22T04:54:15;3.30;;;2.80;;
61038;SDS011;46919;45.816;3.104;2023-07-22T04:56:41;3.72;;;3.03;;
61038;SDS011;46919;45.816;3.104;2023-07-22T04:59:06;4.45;;;3.00;;
61038;SDS011;46919;45.816;3.104;2023-07-22T05:01:32;7.40;;;3.10;;
61038;SDS011;46919;45.816;3.104;2023-07-22T05:03:57;6.70;;;3.05;;
61038;SDS011;46919;45.816;3.104;2023-07-22T05:06:23;6.88;;;3.08;;
61038;SDS011;46919;45.816;3.104;2023-07-22T05:08:50;3.30;;;2.58;;
61038;SDS011;46919;45.816;3.104;2023-07-22T05:11:15;3.88;;;2.88;;
61038;SDS011;46919;45.816;3.104;2023-07-22T05:13:41;4.30;;;2.80;;
61038;SDS011;46919;45.816;3.104;2023-07-22T05:16:07;5.03;;;2.85;;
61038;SDS011;46919;45.816;3.104;2023-07-22T05:18:32;6.05;;;3.17;;
61038;SDS011;46919;45.816;3.104;2023-07-22T05:20:58;3.50;;;2.97;;
61038;SDS011;46919;45.816;3.104;2023-07-22T05:23:23;4.43;;;3.00;;
61038;SDS011;46919;45.816;3.104;2023-07-22T05:25:51;6.07;;;3.20;;
61038;SDS011;46919;45.816;3.104;2023-07-22T05:28:18;3.97;;;3.25;;
61038;SDS011;46919;45.816;3.104;2023-07-22T05:30:43;4.30;;;3.17;;
61038;SDS011;46919;45.816;3.104;2023-07-22T05:33:09;6.28;;;3.83;;
61038;SDS011;46919;45.816;3.104;2023-07-22T05:35:34;4.38;;;2.85;;
61038;SDS011;46919;45.816;3.104;2023-07-22T05:37:59;4.22;;;3.50;;
61038;SDS011;46919;45.816;3.104;2023-07-22T05:40:28;4.05;;;3.35;;
61038;SDS011;46919;45.816;3.104;2023-07-22T05:42:53;3.80;;;2.90;;
61038;SDS011;46919;45.816;3.104;2023-07-22T05:45:18;4.93;;;2.80;;
61038;SDS011;46919;45.816;3.104;2023-07-22T05:47:44;6.28;;;3.28;;
61038;SDS011;46919;45.816;3.104;2023-07-22T05:50:09;4.60;;;3.15;;
61038;SDS011;46919;45.816;3.104;2023-07-22T05:52:34;4.32;;;3.03;;
61038;SDS011;46919;45.816;3.104;2023-07-22T05:55:00;5.70;;;3.17;;
61038;SDS011;46919;45.816;3.104;2023-07-22T05:57:25;4.93;;;3.05;;
61038;SDS011;46919;45.816;3.104;2023-07-22T05:59:51;4.40;;;3.13;;
61038;SDS011;46919;45.816;3.104;2023-07-22T06:02:16;5.03;;;3.22;;
61038;SDS011;46919;45.816;3.104;2023-07-22T06:04:43;6.35;;;3.15;;
61038;SDS011;46919;45.816;3.104;2023-07-22T06:07:08;4.05;;;2.92;;
61038;SDS011;46919;45.816;3.104;2023-07-22T06:09:34;3.72;;;3.00;;
61038;SDS011;46919;45.816;3.104;2023-07-22T06:12:00;7.60;;;3.05;;
61038;SDS011;46919;45.816;3.104;2023-07-22T06:14:25;6.05;;;3.30;;
61038;SDS011;46919;45.816;3.104;2023-07-22T06:16:51;4.95;;;3.10;;
61038;SDS011;46919;45.816;3.104;2023-07-22T06:19:16;4.15;;;2.78;;
61038;SDS011;46919;45.816;3.104;2023-07-22T06:21:42;4.53;;;3.28;;
61038;SDS011;46919;45.816;3.104;2023-07-22T06:24:07;3.40;;;2.85;;
61038;SDS011;46919;45.816;3.104;2023-07-22T06:26:32;4.85;;;2.90;;
61038;SDS011;46919;45.816;3.104;2023-07-22T06:28:58;4.90;;;3.05;;
61038;SDS011;46919;45.816;3.104;2023-07-22T06:31:23;4.00;;;2.70;;
61038;SDS011;46919;45.816;3.104;2023-07-22T06:33:48;4.03;;;2.58;;
61038;SDS011;46919;45.816;3.104;2023-07-22T06:36:14;4.28;;;2.90;;
61038;SDS011;46919;45.816;3.104;2023-07-22T06:38:39;4.60;;;2.97;;
61038;SDS011;46919;45.816;3.104;2023-07-22T06:41:04;5.28;;;3.05;;
61038;SDS011;46919;45.816;3.104;2023-07-22T06:43:30;5.97;;;2.67;;
61038;SDS011;46919;45.816;3.104;2023-07-22T06:45:55;34.63;;;4.47;;
61038;SDS011;46919;45.816;3.104;2023-07-22T06:48:20;4.53;;;2.80;;
61038;SDS011;46919;45.816;3.104;2023-07-22T06:50:47;4.55;;;2.80;;
61038;SDS011;46919;45.816;3.104;2023-07-22T06:53:15;4.88;;;2.67;;
61038;SDS011;46919;45.816;3.104;2023-07-22T06:55:50;6.30;;;2.90;;
61038;SDS011;46919;45.816;3.104;2023-07-22T06:58:16;4.90;;;2.65;;
61038;SDS011;46919;45.816;3.104;2023-07-22T07:00:42;3.22;;;2.80;;
61038;SDS011;46919;45.816;3.104;2023-07-22T07:03:07;4.97;;;2.97;;
61038;SDS011;46919;45.816;3.104;2023-07-22T07:05:33;4.78;;;3.00;;
61038;SDS011;46919;45.816;3.104;2023-07-22T07:07:59;5.05;;;2.63;;
61038;SDS011;46919;45.816;3.104;2023-07-22T07:10:25;4.28;;;2.70;;
61038;SDS011;46919;45.816;3.104;2023-07-22T07:12:51;5.28;;;3.10;;
61038;SDS011;46919;45.816;3.104;2023-07-22T07:15:16;6.28;;;2.90;;
61038;SDS011;46919;45.816;3.104;2023-07-22T07:17:41;6.72;;;2.88;;
61038;SDS011;46919;45.816;3.104;2023-07-22T07:20:07;3.70;;;2.72;;
61038;SDS011;46919;45.816;3.104;2023-07-22T07:22:32;3.95;;;2.83;;
61038;SDS011;46919;45.816;3.104;2023-07-22T07:24:58;5.25;;;2.25;;
61038;SDS011;46919;45.816;3.104;2023-07-22T07:27:23;3.58;;;2.70;;
61038;SDS011;46919;45.816;3.104;2023-07-22T07:29:49;4.95;;;2.67;;
61038;SDS011;46919;45.816;3.104;2023-07-22T07:32:14;4.15;;;2.47;;
61038;SDS011;46919;45.816;3.104;2023-07-22T07:34:39;4.43;;;2.70;;
61038;SDS011;46919;45.816;3.104;2023-07-22T07:37:05;3.38;;;2.55;;
61038;SDS011;46919;45.816;3.104;2023-07-22T07:39:30;3.95;;;2.80;;
61038;SDS011;46919;45.816;3.104;2023-07-22T07:41:56;7.55;;;2.72;;
61038;SDS011;46919;45.816;3.104;2023-07-22T07:44:21;4.75;;;2.67;;
61038;SDS011;46919;45.816;3.104;2023-07-22T07:46:46;5.55;;;2.70;;
61038;SDS011;46919;45.816;3.104;2023-07-22T07:49:12;7.43;;;2.65;;
61038;SDS011;46919;45.816;3.104;2023-07-22T07:51:37;2.65;;;2.42;;
61038;SDS011;46919;45.816;3.104;2023-07-22T07:54:03;7.07;;;2.60;;
61038;SDS011;46919;45.816;3.104;2023-07-22T07:56:29;2.55;;;2.33;;
61038;SDS011;46919;45.816;3.104;2023-07-22T07:58:54;2.90;;;2.17;;
61038;SDS011;46919;45.816;3.104;2023-07-22T08:01:20;3.33;;;2.60;;
61038;SDS011;46919;45.816;3.104;2023-07-22T08:03:46;4.60;;;2.67;;
61038;SDS011;46919;45.816;3.104;2023-07-22T08:06:12;2.72;;;2.20;;
61038;SDS011;46919;45.816;3.104;2023-07-22T08:08:38;3.70;;;2.35;;
61038;SDS011;46919;45.816;3.104;2023-07-22T08:11:05;3.33;;;2.38;;
61038;SDS011;46919;45.816;3.104;2023-07-22T08:13:32;5.18;;;2.47;;
61038;SDS011;46919;45.816;3.104;2023-07-22T08:16:09;3.53;;;2.67;;
61038;SDS011;46919;45.816;3.104;2023-07-22T08:18:36;6.43;;;2.72;;
61038;SDS011;46919;45.816;3.104;2023-07-22T08:21:02;5.88;;;2.55;;
61038;SDS011;46919;45.816;3.104;2023-07-22T08:23:29;4.20;;;2.63;;
61038;SDS011;46919;45.816;3.104;2023-07-22T08:25:55;3.72;;;2.92;;
61038;SDS011;46919;45.816;3.104;2023-07-22T08:28:20;3.63;;;2.60;;
61038;SDS011;46919;45.816;3.104;2023-07-22T08:30:47;6.75;;;2.70;;
61038;SDS011;46919;45.816;3.104;2023-07-22T08:33:13;2.95;;;2.22;;
61038;SDS011;46919;45.816;3.104;2023-07-22T08:35:39;5.18;;;2.40;;
61038;SDS011;46919;45.816;3.104;2023-07-22T08:38:05;4.18;;;1.98;;
61038;SDS011;46919;45.816;3.104;2023-07-22T08:43:04;4.05;;;2.10;;
61038;SDS011;46919;45.816;3.104;2023-07-22T08:45:31;4.85;;;2.45;;
61038;SDS011;46919;45.816;3.104;2023-07-22T08:47:59;2.97;;;1.80;;
61038;SDS011;46919;45.816;3.104;2023-07-22T08:50:30;2.85;;;2.30;;
61038;SDS011;46919;45.816;3.104;2023-07-22T08:52:59;3.35;;;2.35;;
61038;SDS011;46919;45.816;3.104;2023-07-22T08:55:26;5.43;;;2.40;;
61038;SDS011;46919;45.816;3.104;2023-07-22T08:57:51;3.97;;;1.90;;
61038;SDS011;46919;45.816;3.104;2023-07-22T09:00:18;5.55;;;2.00;;
61038;SDS011;46919;45.816;3.104;2023-07-22T09:02:44;3.53;;;2.15;;
61038;SDS011;46919;45.816;3.104;2023-07-22T09:05:10;4.20;;;2.20;;
61038;SDS011;46919;45.816;3.104;2023-07-22T09:07:36;3.88;;;2.13;;
61038;SDS011;46919;45.816;3.104;2023-07-22T09:10:04;3.50;;;2.33;;
61038;SDS011;46919;45.816;3.104;2023-07-22T09:12:32;1.73;;;1.33;;
61038;SDS011;46919;45.816;3.104;2023-07-22T09:15:05;2.38;;;1.17;;
61038;SDS011;46919;45.816;3.104;2023-07-22T09:17:34;2.03;;;1.30;;
61038;SDS011;46919;45.816;3.104;2023-07-22T09:20:00;2.92;;;1.15;;
61038;SDS011;46919;45.816;3.104;2023-07-22T09:22:28;1.95;;;1.20;;
61038;SDS011;46919;45.816;3.104;2023-07-22T09:24:54;2.63;;;1.20;;
61038;SDS011;46919;45.816;3.104;2023-07-22T09:27:44;1.20;;;1.10;;
61038;SDS011;46919;45.816;3.104;2023-07-22T09:32:54;2.03;;;1.42;;
61038;SDS011;46919;45.816;3.104;2023-07-22T09:35:21;2.25;;;1.10;;
61038;SDS011;46919;45.816;3.104;2023-07-22T09:37:47;2.45;;;1.10;;
61038;SDS011;46919;45.816;3.104;2023-07-22T09:40:17;4.85;;;1.35;;
61038;SDS011;46919;45.816;3.104;2023-07-22T09:42:47;3.00;;;1.30;;
61038;SDS011;46919;45.816;3.104;2023-07-22T09:45:23;1.60;;;1.10;;
61038;SDS011;46919;45.816;3.104;2023-07-22T09:47:50;1.83;;;1.00;;
61038;SDS011;46919;45.816;3.104;2023-07-22T09:50:17;1.20;;;0.90;;
61038;SDS011;46919;45.816;3.104;2023-07-22T09:52:48;1.00;;;0.90;;
61038;SDS011;46919;45.816;3.104;2023-07-22T09:55:14;0.70;;;0.70;;
61038;SDS011;46919;45.816;3.104;2023-07-22T09:57:42;0.93;;;0.70;;
61038;SDS011;46919;45.816;3.104;2023-07-22T10:00:13;0.98;;;0.80;;
61038;SDS011;46919;45.816;3.104;2023-07-22T10:02:41;1.17;;;0.82;;
61038;SDS011;46919;45.816;3.104;2023-07-22T10:05:12;1.10;;;0.60;;
61038;SDS011;46919;45.816;3.104;2023-07-22T10:07:41;0.75;;;0.60;;
61038;SDS011;46919;45.816;3.104;2023-07-22T10:10:10;0.85;;;0.70;;
61038;SDS011;46919;45.816;3.104;2023-07-22T10:12:37;1.83;;;1.15;;
61038;SDS011;46919;45.816;3.104;2023-07-22T10:15:07;2.42;;;0.77;;
61038;SDS011;46919;45.816;3.104;2023-07-22T10:17:33;1.48;;;0.70;;
61038;SDS011;46919;45.816;3.104;2023-07-22T10:19:59;1.60;;;0.70;;
61038;SDS011;46919;45.816;3.104;2023-07-22T10:22:24;0.70;;;0.60;;
61038;SDS011;46919;45.816;3.104;2023-07-22T10:24:51;1.23;;;0.80;;
61038;SDS011;46919;45.816;3.104;2023-07-22T10:27:17;0.80;;;0.60;;
61038;SDS011;46919;45.816;3.104;2023-07-22T10:29:43;2.60;;;0.95;;
61038;SDS011;46919;45.816;3.104;2023-07-22T10:32:11;1.90;;;0.68;;
61038;SDS011;46919;45.816;3.104;2023-07-22T10:34:36;0.93;;;0.80;;
61038;SDS011;46919;45.816;3.104;2023-07-22T10:37:02;1.13;;;0.60;;
61038;SDS011;46919;45.816;3.104;2023-07-22T10:39:29;1.23;;;0.90;;
61038;SDS011;46919;45.816;3.104;2023-07-22T10:42:04;1.73;;;1.20;;
61038;SDS011;46919;45.816;3.104;2023-07-22T10:44:31;1.20;;;0.70;;
61038;SDS011;46919;45.816;3.104;2023-07-22T10:46:58;1.38;;;0.90;;
61038;SDS011;46919;45.816;3.104;2023-07-22T10:49:23;1.00;;;0.70;;
61038;SDS011;46919;45.816;3.104;2023-07-22T10:51:52;0.88;;;0.60;;
61038;SDS011;46919;45.816;3.104;2023-07-22T10:54:34;0.77;;;0.77;;
61038;SDS011;46919;45.816;3.104;2023-07-22T10:59:51;1.05;;;0.70;;
61038;SDS011;46919;45.816;3.104;2023-07-22T11:02:29;0.77;;;0.68;;
61038;SDS011;46919;45.816;3.104;2023-07-22T11:04:58;3.50;;;0.90;;
61038;SDS011;46919;45.816;3.104;2023-07-22T11:07:57;2.35;;;1.00;;
61038;SDS011;46919;45.816;3.104;2023-07-22T11:10:18;1.48;;;0.77;;
61038;SDS011;46919;45.816;3.104;2023-07-22T11:12:44;0.82;;;0.70;;
61038;SDS011;46919;45.816;3.104;2023-07-22T11:15:10;1.20;;;0.65;;
61038;SDS011;46919;45.816;3.104;2023-07-22T11:17:35;1.63;;;0.90;;
61038;SDS011;46919;45.816;3.104;2023-07-22T11:20:02;2.17;;;0.80;;
61038;SDS011;46919;45.816;3.104;2023-07-22T11:22:28;0.82;;;0.80;;
61038;SDS011;46919;45.816;3.104;2023-07-22T11:24:57;0.90;;;0.70;;
61038;SDS011;46919;45.816;3.104;2023-07-22T11:27:25;0.60;;;0.60;;
61038;SDS011;46919;45.816;3.104;2023-07-22T11:29:50;1.65;;;0.90;;
61038;SDS011;46919;45.816;3.104;2023-07-22T11:32:17;0.75;;;0.60;;
61038;SDS011;46919;45.816;3.104;2023-07-22T11:34:43;0.80;;;0.57;;
61038;SDS011;46919;45.816;3.104;2023-07-22T11:37:13;0.60;;;0.60;;
61038;SDS011;46919;45.816;3.104;2023-07-22T11:39:39;0.80;;;0.70;;
61038;SDS011;46919;45.816;3.104;2023-07-22T11:42:06;1.30;;;0.77;;
61038;SDS011;46919;45.816;3.104;2023-07-22T11:44:32;1.65;;;0.60;;
61038;SDS011;46919;45.816;3.104;2023-07-22T11:47:05;0.98;;;0.70;;
61038;SDS011;46919;45.816;3.104;2023-07-22T11:49:39;0.70;;;0.63;;
61038;SDS011;46919;45.816;3.104;2023-07-22T11:52:10;1.30;;;1.00;;
61038;SDS011;46919;45.816;3.104;2023-07-22T11:54:40;2.78;;;0.77;;
61038;SDS011;46919;45.816;3.104;2023-07-22T11:57:23;0.73;;;0.70;;
61038;SDS011;46919;45.816;3.104;2023-07-22T11:59:49;1.73;;;0.85;;
61038;SDS011;46919;45.816;3.104;2023-07-22T12:02:17;0.77;;;0.55;;
61038;SDS011;46919;45.816;3.104;2023-07-22T12:04:53;2.45;;;1.00;;
61038;SDS011;46919;45.816;3.104;2023-07-22T12:07:25;0.95;;;0.85;;
61038;SDS011;46919;45.816;3.104;2023-07-22T12:09:51;1.10;;;0.90;;
61038;SDS011;46919;45.816;3.104;2023-07-22T12:12:18;1.15;;;0.95;;
61038;SDS011;46919;45.816;3.104;2023-07-22T12:14:45;0.98;;;0.88;;
61038;SDS011;46919;45.816;3.104;2023-07-22T12:17:10;1.58;;;0.88;;
61038;SDS011;46919;45.816;3.104;2023-07-22T12:19:36;1.67;;;1.05;;
61038;SDS011;46919;45.816;3.104;2023-07-22T12:22:01;2.25;;;1.02;;
61038;SDS011;46919;45.816;3.104;2023-07-22T12:24:27;0.88;;;0.85;;
61038;SDS011;46919;45.816;3.104;2023-07-22T12:26:53;2.25;;;1.02;;
61038;SDS011;46919;45.816;3.104;2023-07-22T12:29:19;1.10;;;1.00;;
61038;SDS011;46919;45.816;3.104;2023-07-22T12:31:44;1.55;;;1.02;;
61038;SDS011;46919;45.816;3.104;2023-07-22T12:34:10;1.35;;;1.08;;
61038;SDS011;46919;45.816;3.104;2023-07-22T12:36:35;2.80;;;1.10;;
61038;SDS011;46919;45.816;3.104;2023-07-22T12:39:00;2.40;;;1.08;;
61038;SDS011;46919;45.816;3.104;2023-07-22T12:41:26;1.23;;;0.88;;
61038;SDS011;46919;45.816;3.104;2023-07-22T12:43:51;1.20;;;1.10;;
61038;SDS011;46919;45.816;3.104;2023-07-22T12:46:17;1.10;;;1.00;;
61038;SDS011;46919;45.816;3.104;2023-07-22T12:48:42;1.13;;;1.00;;
61038;SDS011;46919;45.816;3.104;2023-07-22T12:51:08;1.55;;;0.90;;
61038;SDS011;46919;45.816;3.104;2023-07-22T12:53:34;1.58;;;1.00;;
61038;SDS011;46919;45.816;3.104;2023-07-22T12:56:00;1.08;;;1.00;;
61038;SDS011;46919;45.816;3.104;2023-07-22T12:58:28;1.33;;;1.23;;
61038;SDS011;46919;45.816;3.104;2023-07-22T13:00:53;1.00;;;0.82;;
61038;SDS011;46919;45.816;3.104;2023-07-22T13:03:19;0.80;;;0.80;;
61038;SDS011;46919;45.816;3.104;2023-07-22T13:05:44;2.80;;;0.80;;
61038;SDS011;46919;45.816;3.104;2023-07-22T13:08:09;2.15;;;1.20;;
61038;SDS011;46919;45.816;3.104;2023-07-22T13:10:35;1.20;;;1.10;;
61038;SDS011;46919;45.816;3.104;2023-07-22T13:13:02;1.17;;;1.08;;
61038;SDS011;46919;45.816;3.104;2023-07-22T13:15:28;0.93;;;0.80;;
61038;SDS011;46919;45.816;3.104;2023-07-22T13:17:54;1.20;;;1.10;;
61038;SDS011;46919;45.816;3.104;2023-07-22T13:20:19;1.30;;;1.20;;
61038;SDS011;46919;45.816;3.104;2023-07-22T13:22:44;1.80;;;0.90;;
61038;SDS011;46919;45.816;3.104;2023-07-22T13:25:10;1.35;;;1.05;;
61038;SDS011;46919;45.816;3.104;2023-07-22T13:27:35;16.55;;;2.13;;
61038;SDS011;46919;45.816;3.104;2023-07-22T13:30:03;1.30;;;1.00;;
61038;SDS011;46919;45.816;3.104;2023-07-22T13:32:30;2.97;;;1.08;;
61038;SDS011;46919;45.816;3.104;2023-07-22T16:19:41;0.90;;;0.82;;
61038;SDS011;46919;45.816;3.104;2023-07-22T16:22:07;2.35;;;1.20;;
61038;SDS011;46919;45.816;3.104;2023-07-22T16:24:32;1.25;;;1.15;;
61038;SDS011;46919;45.816;3.104;2023-07-22T16:26:58;1.10;;;1.00;;
61038;SDS011;46919;45.816;3.104;2023-07-22T16:29:23;1.20;;;1.02;;
61038;SDS011;46919;45.816;3.104;2023-07-22T16:31:49;1.15;;;1.05;;
61038;SDS011;46919;45.816;3.104;2023-07-22T16:34:15;3.97;;;1.38;;
61038;SDS011;46919;45.816;3.104;2023-07-22T16:36:40;1.88;;;0.90;;
61038;SDS011;46919;45.816;3.104;2023-07-22T16:39:05;1.10;;;1.00;;
61038;SDS011;46919;45.816;3.104;2023-07-22T16:41:32;0.90;;;0.90;;
61038;SDS011;46919;45.816;3.104;2023-07-22T16:43:57;1.70;;;1.08;;
61038;SDS011;46919;45.816;3.104;2023-07-22T16:46:22;2.85;;;1.15;;
61038;SDS011;46919;45.816;3.104;2023-07-22T16:48:48;1.20;;;1.10;;
61038;SDS011;46919;45.816;3.104;2023-07-22T16:51:13;0.90;;;0.75;;
61038;SDS011;46919;45.816;3.104;2023-07-22T16:53:40;0.95;;;0.80;;
61038;SDS011;46919;45.816;3.104;2023-07-22T16:56:05;1.00;;;0.90;;
61038;SDS011;46919;45.816;3.104;2023-07-22T16:58:31;3.03;;;1.02;;
61038;SDS011;46919;45.816;3.104;2023-07-22T17:00:56;1.02;;;0.90;;
61038;SDS011;46919;45.816;3.104;2023-07-22T17:03:22;1.40;;;1.15;;
61038;SDS011;46919;45.816;3.104;2023-07-22T17:05:47;4.05;;;1.00;;
61038;SDS011;46919;45.816;3.104;2023-07-22T17:08:13;1.20;;;1.10;;
61038;SDS011;46919;45.816;3.104;2023-07-22T17:10:39;1.15;;;1.05;;
61038;SDS011;46919;45.816;3.104;2023-07-22T17:13:04;1.92;;;1.00;;
61038;SDS011;46919;45.816;3.104;2023-07-22T17:15:29;0.90;;;0.90;;
61038;SDS011;46919;45.816;3.104;2023-07-22T17:17:55;0.88;;;0.80;;
61038;SDS011;46919;45.816;3.104;2023-07-22T17:20:20;1.00;;;0.82;;
61038;SDS011;46919;45.816;3.104;2023-07-22T17:22:46;1.88;;;0.80;;
61038;SDS011;46919;45.816;3.104;2023-07-22T17:25:11;0.82;;;0.70;;
61038;SDS011;46919;45.816;3.104;2023-07-22T17:27:37;1.48;;;0.85;;
61038;SDS011;46919;45.816;3.104;2023-07-22T17:30:02;1.10;;;1.00;;
61038;SDS011;46919;45.816;3.104;2023-07-22T17:32:28;1.40;;;0.90;;
61038;SDS011;46919;45.816;3.104;2023-07-22T17:34:53;0.73;;;0.73;;
61038;SDS011;46919;45.816;3.104;2023-07-22T17:37:20;1.25;;;0.98;;